createdAt,value
2018-01-22T00:00:12.442Z,62.00
2018-01-22T00:02:38.834Z,52.23
2018-01-22T00:05:05.341Z,48.97
2018-01-22T00:07:31.758Z,51.53
2018-01-22T00:09:58.300Z,36.53
2018-01-22T00:12:24.717Z,43.80
2018-01-22T00:14:51.259Z,48.40
2018-01-22T00:17:18.511Z,58.87
2018-01-22T00:19:46.088Z,47.23
2018-01-22T00:22:12.497Z,50.30
2018-01-22T00:24:38.975Z,54.53
2018-01-22T00:27:05.382Z,62.73
2018-01-22T00:29:31.900Z,39.63
2018-01-22T00:31:58.231Z,45.90
2018-01-22T00:34:24.675Z,40.27
2018-01-22T00:36:51.149Z,42.70
2018-01-22T00:39:18.354Z,25.63
2018-01-22T00:41:46.475Z,35.23
2018-01-22T00:44:13.224Z,39.13
2018-01-22T00:46:39.684Z,37.20
2018-01-22T00:49:06.142Z,46.80
2018-01-22T00:51:32.575Z,34.10
2018-01-22T00:53:58.988Z,44.53
2018-01-22T00:56:26.279Z,49.00
2018-01-22T00:58:53.616Z,37.50
2018-01-22T01:01:20.207Z,44.13
2018-01-22T01:03:47.091Z,43.67
2018-01-22T01:06:14.244Z,54.40
2018-01-22T01:08:40.712Z,47.33
2018-01-22T01:11:07.365Z,39.17
2018-01-22T01:13:34.177Z,37.67
2018-01-22T01:16:00.725Z,49.77
2018-01-22T01:18:27.997Z,41.43
2018-01-22T01:20:55.424Z,55.00
2018-01-22T01:23:23.383Z,43.43
2018-01-22T01:25:51.499Z,44.50
2018-01-22T01:28:18.504Z,53.97
2018-01-22T01:30:44.961Z,45.90
2018-01-22T01:33:11.546Z,51.10
2018-01-22T01:35:38.121Z,48.47
2018-01-22T01:38:04.717Z,51.67
2018-01-22T01:40:45.441Z,54.40
2018-01-22T01:43:11.915Z,45.60
2018-01-22T01:45:38.599Z,55.97
2018-01-22T01:48:05.600Z,52.87
2018-01-22T01:50:32.696Z,55.60
2018-01-22T01:52:59.806Z,43.93
2018-01-22T01:55:27.394Z,60.33
2018-01-22T01:57:53.756Z,41.60
2018-01-22T02:00:20.605Z,47.33
2018-01-22T02:02:47.095Z,52.77
2018-01-22T02:05:13.552Z,33.50
2018-01-22T02:07:40.134Z,41.33
2018-01-22T02:10:06.558Z,42.17
2018-01-22T02:12:32.969Z,34.83
2018-01-22T02:14:59.360Z,36.13
2018-01-22T02:17:43.876Z,35.37
2018-01-22T02:20:11.858Z,44.63
2018-01-22T02:22:38.275Z,37.93
2018-01-22T02:25:04.826Z,42.10
2018-01-22T02:27:31.354Z,41.17
2018-01-22T02:29:57.836Z,51.20
2018-01-22T02:32:25.082Z,43.37
2018-01-22T02:34:51.943Z,38.30
2018-01-22T02:37:18.445Z,48.40
2018-01-22T02:39:45.819Z,38.43
2018-01-22T02:42:12.969Z,53.07
2018-01-22T02:44:39.435Z,36.93
2018-01-22T02:47:05.964Z,38.43
2018-01-22T02:49:33.104Z,35.43
2018-01-22T02:52:00.424Z,40.00
2018-01-22T02:54:27.368Z,40.37
2018-01-22T02:56:53.869Z,30.37
2018-01-22T02:59:20.705Z,30.30
2018-01-22T03:01:47.516Z,31.73
2018-01-22T03:04:13.951Z,30.50
2018-01-22T03:06:40.861Z,43.40
2018-01-22T03:09:07.205Z,34.13
2018-01-22T03:11:33.693Z,32.47
2018-01-22T03:14:00.466Z,34.43
2018-01-22T03:16:26.991Z,30.80
2018-01-22T03:18:54.621Z,24.90
2018-01-22T03:21:22.397Z,28.77
2018-01-22T03:23:48.951Z,33.03
2018-01-22T03:26:16.268Z,26.17
2018-01-22T03:28:43.131Z,31.13
2018-01-22T03:31:09.595Z,30.90
2018-01-22T03:33:36.052Z,37.00
2018-01-22T03:36:04.083Z,30.33
2018-01-22T03:38:30.943Z,41.60
2018-01-22T03:40:57.371Z,29.93
2018-01-22T03:43:24.205Z,35.17
2018-01-22T03:45:50.677Z,33.03
2018-01-22T03:48:17.505Z,28.43
2018-01-22T03:50:43.947Z,25.73
2018-01-22T03:53:10.418Z,27.97
2018-01-22T03:55:36.905Z,32.03
2018-01-22T03:58:03.307Z,34.77
2018-01-22T04:00:30.561Z,32.63
2018-01-22T04:02:56.904Z,32.00
2018-01-22T04:05:23.689Z,41.43
2018-01-22T04:07:50.103Z,30.17
2018-01-22T04:10:16.476Z,36.40
2018-01-22T04:12:43.984Z,31.17
2018-01-22T04:15:10.510Z,37.67
2018-01-22T04:17:36.950Z,40.87
2018-01-22T04:20:04.067Z,35.03
2018-01-22T04:22:30.998Z,32.67
2018-01-22T04:24:57.412Z,35.10
2018-01-22T04:27:23.885Z,34.33
2018-01-22T04:29:51.350Z,28.60
2018-01-22T04:32:17.780Z,37.37
2018-01-22T04:34:44.546Z,38.30
2018-01-22T04:37:11.045Z,26.57
2018-01-22T04:39:37.434Z,32.93
2018-01-22T04:42:03.906Z,41.63
2018-01-22T04:44:30.265Z,37.07
2018-01-22T04:46:56.724Z,27.20
2018-01-22T04:49:23.940Z,38.10
2018-01-22T04:51:50.323Z,40.03
2018-01-22T04:54:16.728Z,42.10
2018-01-22T04:56:43.893Z,49.23
2018-01-22T04:59:11.282Z,43.30
2018-01-22T05:01:37.725Z,45.70
2018-01-22T05:04:04.194Z,46.33
2018-01-22T05:06:30.629Z,28.73
2018-01-22T05:08:57.746Z,35.30
2018-01-22T05:11:24.143Z,45.53
2018-01-22T05:13:50.554Z,44.30
2018-01-22T05:16:17.324Z,33.30
2018-01-22T05:18:43.950Z,38.90
2018-01-22T05:21:10.725Z,29.80
2018-01-22T05:23:37.321Z,35.50
2018-01-22T05:26:03.681Z,30.67
2018-01-22T05:28:31.301Z,31.37
2018-01-22T05:30:58.519Z,37.77
2018-01-22T05:33:24.925Z,39.23
2018-01-22T05:35:52.494Z,41.50
2018-01-22T05:38:19.736Z,34.13
2018-01-22T05:40:46.168Z,42.20
2018-01-22T05:43:12.532Z,40.70
2018-01-22T05:45:39.866Z,43.43
2018-01-22T05:48:07.032Z,39.53
2018-01-22T05:50:33.476Z,40.37
2018-01-22T05:53:01.353Z,37.77
2018-01-22T05:55:29.176Z,33.30
2018-01-22T05:57:56.572Z,40.90
2018-01-22T06:00:24.835Z,39.83
2018-01-22T06:02:51.264Z,40.20
2018-01-22T06:05:18.804Z,33.33
2018-01-22T06:07:45.344Z,38.07
2018-01-22T06:10:12.922Z,48.67
2018-01-22T06:12:39.453Z,35.03
2018-01-22T06:15:06.277Z,39.17
2018-01-22T06:17:33.083Z,34.00
2018-01-22T06:19:59.862Z,39.67
2018-01-22T06:22:26.744Z,36.03
2018-01-22T06:24:53.374Z,38.87
2018-01-22T06:27:19.847Z,47.13
2018-01-22T06:29:47.763Z,43.00
2018-01-22T06:32:14.125Z,37.87
2018-01-22T06:34:40.528Z,34.13
2018-01-22T06:37:06.926Z,35.37
2018-01-22T06:39:33.274Z,35.10
2018-01-22T06:41:59.784Z,47.47
2018-01-22T06:44:26.224Z,32.03
2018-01-22T06:46:52.722Z,37.90
2018-01-22T06:49:20.916Z,33.20
2018-01-22T06:51:47.680Z,41.47
2018-01-22T06:54:14.486Z,35.70
2018-01-22T06:56:41.707Z,39.90
2018-01-22T06:59:08.185Z,32.40
2018-01-22T07:01:35.425Z,32.87
2018-01-22T07:04:03.641Z,32.77
2018-01-22T07:06:29.958Z,32.87
2018-01-22T07:08:58.112Z,32.53
2018-01-22T07:11:25.601Z,38.03
2018-01-22T07:13:51.950Z,45.27
2018-01-22T07:16:18.369Z,39.33
2018-01-22T07:18:44.891Z,38.27
2018-01-22T07:21:11.345Z,35.63
2018-01-22T07:23:38.122Z,46.10
2018-01-22T07:26:04.995Z,41.23
2018-01-22T07:28:31.449Z,58.83
2018-01-22T07:30:57.889Z,46.97
2018-01-22T07:33:24.893Z,39.37
2018-01-22T07:35:51.676Z,43.63
2018-01-22T07:38:19.542Z,46.03
2018-01-22T07:41:02.241Z,46.30
2018-01-22T07:43:31.874Z,50.83
2018-01-22T07:45:58.216Z,51.07
2018-01-22T07:48:24.947Z,54.20
2018-01-22T07:50:51.280Z,41.23
2018-01-22T07:53:18.488Z,44.50
2018-01-22T07:55:45.314Z,47.63
2018-01-22T07:58:12.479Z,39.73
2018-01-22T08:00:39.281Z,49.30
2018-01-22T08:03:05.998Z,35.60
2018-01-22T08:05:33.061Z,42.53
2018-01-22T08:07:59.769Z,40.43
2018-01-22T08:10:26.220Z,36.67
2018-01-22T08:12:53.327Z,38.43
2018-01-22T08:15:19.693Z,37.57
2018-01-22T08:17:46.206Z,43.70
2018-01-22T08:20:12.594Z,33.23
2018-01-22T08:22:39.052Z,35.50
2018-01-22T08:25:05.518Z,34.40
2018-01-22T08:27:32.367Z,41.53
2018-01-22T08:29:59.581Z,39.90
2018-01-22T08:32:26.191Z,40.80
2018-01-22T08:34:53.038Z,44.90
2018-01-22T08:37:19.816Z,41.30
2018-01-22T08:39:46.712Z,36.60
2018-01-22T08:42:13.489Z,39.47
2018-01-22T08:44:41.560Z,44.93
2018-01-22T08:47:09.704Z,38.53
2018-01-22T08:49:36.089Z,27.30
2018-01-22T08:52:02.599Z,43.33
2018-01-22T08:54:29.360Z,35.13
2018-01-22T08:56:57.514Z,40.73
2018-01-22T08:59:24.252Z,41.10
2018-01-22T09:01:50.691Z,45.20
2018-01-22T09:04:18.868Z,33.83
2018-01-22T09:06:46.346Z,45.03
2018-01-22T09:09:13.076Z,37.70
2018-01-22T09:11:40.873Z,40.23
2018-01-22T09:14:08.995Z,34.73
2018-01-22T09:16:35.411Z,35.93
2018-01-22T09:19:01.927Z,37.90
2018-01-22T09:21:29.532Z,36.17
2018-01-22T09:23:55.888Z,33.60
2018-01-22T09:26:22.374Z,46.93
2018-01-22T09:28:48.959Z,36.40
2018-01-22T09:31:16.603Z,43.70
2018-01-22T09:33:44.774Z,33.27
2018-01-22T09:36:12.017Z,31.77
2018-01-22T09:38:38.477Z,34.40
2018-01-22T09:41:05.647Z,35.23
2018-01-22T09:43:32.050Z,41.27
2018-01-22T09:45:58.920Z,33.83
2018-01-22T09:48:27.021Z,36.93
2018-01-22T09:50:53.799Z,37.77
2018-01-22T09:53:21.330Z,34.20
2018-01-22T09:55:47.743Z,31.90
2018-01-22T09:58:14.535Z,27.03
2018-01-22T10:00:42.300Z,32.17
2018-01-22T10:03:08.755Z,34.43
2018-01-22T10:05:35.538Z,34.00
2018-01-22T10:08:03.432Z,27.17
2018-01-22T10:10:29.906Z,39.10
2018-01-22T10:12:56.518Z,33.63
2018-01-22T10:15:23.666Z,35.13
2018-01-22T10:17:51.144Z,32.10
2018-01-22T10:20:17.523Z,37.00
2018-01-22T10:22:44.296Z,23.27
2018-01-22T10:25:10.890Z,34.13
2018-01-22T10:27:38.604Z,35.07
2018-01-22T10:30:06.047Z,38.43
2018-01-22T10:32:32.602Z,33.23
2018-01-22T10:34:59.138Z,28.17
2018-01-22T10:37:25.952Z,35.33
2018-01-22T10:39:52.382Z,39.13
2018-01-22T10:42:18.812Z,30.77
2018-01-22T10:44:47.152Z,37.70
2018-01-22T10:47:14.834Z,29.70
2018-01-22T10:49:42.149Z,31.93
2018-01-22T10:52:09.321Z,32.53
2018-01-22T10:54:35.969Z,38.63
2018-01-22T10:57:02.484Z,31.13
2018-01-22T10:59:28.918Z,31.30
2018-01-22T11:01:56.555Z,32.33
2018-01-22T11:04:23.495Z,40.10
2018-01-22T11:06:50.882Z,41.83
2018-01-22T11:09:17.407Z,34.27
2018-01-22T11:11:45.634Z,38.10
2018-01-22T11:14:18.942Z,40.87
2018-01-22T11:16:45.408Z,35.93
2018-01-22T11:19:12.182Z,35.40
2018-01-22T11:21:39.511Z,26.00
2018-01-22T11:24:07.622Z,34.13
2018-01-22T11:26:35.474Z,32.27
2018-01-22T11:29:02.209Z,32.30
2018-01-22T11:31:28.853Z,32.83
2018-01-22T11:33:55.272Z,29.50
2018-01-22T11:36:22.515Z,41.70
2018-01-22T11:38:49.788Z,33.23
2018-01-22T11:41:16.362Z,32.10
2018-01-22T11:43:42.966Z,30.50
2018-01-22T11:46:10.182Z,32.63
2018-01-22T11:48:37.383Z,32.07
2018-01-22T11:51:03.941Z,27.03
2018-01-22T11:53:30.521Z,32.03
2018-01-22T11:55:57.816Z,29.57
2018-01-22T11:58:24.444Z,39.33
2018-01-22T12:00:52.392Z,31.50
2018-01-22T12:03:19.680Z,35.03
2018-01-22T12:05:46.080Z,31.33
2018-01-22T12:08:13.391Z,27.47
2018-01-22T12:10:39.824Z,30.73
2018-01-22T12:13:06.715Z,29.87
2018-01-22T12:15:33.249Z,32.37
2018-01-22T12:18:00.252Z,35.00
2018-01-22T12:20:26.682Z,34.20
2018-01-22T12:22:53.407Z,31.60
2018-01-22T12:25:20.300Z,33.77
2018-01-22T12:27:47.910Z,37.60
2018-01-22T12:30:14.356Z,27.27
2018-01-22T12:32:42.468Z,29.63
2018-01-22T12:35:08.882Z,28.90
2018-01-22T12:37:35.408Z,24.90
2018-01-22T12:40:03.025Z,35.43
2018-01-22T12:42:29.635Z,26.90
2018-01-22T12:44:56.137Z,33.07
2018-01-22T12:47:22.640Z,31.47
2018-01-22T12:49:50.043Z,31.70
2018-01-22T12:52:18.044Z,33.73
2018-01-22T12:54:44.644Z,22.17
2018-01-22T12:57:11.854Z,27.30
2018-01-22T12:59:38.760Z,26.00
2018-01-22T13:02:05.357Z,34.80
2018-01-22T13:04:32.446Z,26.50
2018-01-22T13:06:58.943Z,34.27
2018-01-22T13:09:27.111Z,33.77
2018-01-22T13:11:55.348Z,28.83
2018-01-22T13:14:22.445Z,28.30
2018-01-22T13:16:49.074Z,33.70
2018-01-22T13:19:15.608Z,40.97
2018-01-22T13:21:43.166Z,27.23
2018-01-22T13:24:10.509Z,26.93
2018-01-22T13:26:38.615Z,33.27
2018-01-22T13:29:04.978Z,26.13
2018-01-22T13:31:32.122Z,24.60
2018-01-22T13:34:00.273Z,34.00
2018-01-22T13:36:27.388Z,29.97
2018-01-22T13:38:54.167Z,32.33
2018-01-22T13:41:22.100Z,26.80
2018-01-22T13:43:48.864Z,26.60
2018-01-22T13:46:15.236Z,31.97
2018-01-22T13:48:42.389Z,33.27
2018-01-22T13:51:09.533Z,29.80
2018-01-22T13:53:36.436Z,30.50
2018-01-22T13:56:02.891Z,32.30
2018-01-22T13:58:29.516Z,33.70
2018-01-22T14:00:56.363Z,26.17
2018-01-22T14:03:22.789Z,28.80
2018-01-22T14:05:50.938Z,27.90
2018-01-22T14:08:17.341Z,32.10
2018-01-22T14:10:44.583Z,26.80
2018-01-22T14:13:11.806Z,27.00
2018-01-22T14:15:38.438Z,31.80
2018-01-22T14:18:06.501Z,33.73
2018-01-22T14:20:34.692Z,32.30
2018-01-22T14:23:01.100Z,33.50
2018-01-22T14:25:28.776Z,32.63
2018-01-22T14:27:55.882Z,28.90
2018-01-22T14:30:22.243Z,26.07
2018-01-22T14:32:49.450Z,27.73
2018-01-22T14:35:16.374Z,32.20
2018-01-22T14:37:42.831Z,23.80
2018-01-22T14:40:09.525Z,31.07
2018-01-22T14:42:36.370Z,26.27
2018-01-22T14:45:04.126Z,23.23
2018-01-22T14:47:31.081Z,33.03
2018-01-22T14:49:59.235Z,28.37
2018-01-22T14:52:26.372Z,31.30
2018-01-22T14:54:53.142Z,31.33
2018-01-22T14:57:20.266Z,32.17
2018-01-22T14:59:48.444Z,39.40
2018-01-22T15:02:14.909Z,29.13
2018-01-22T15:48:37.431Z,44.60
2018-01-22T15:51:04.626Z,48.67
2018-01-22T15:53:31.775Z,44.23
2018-01-22T15:55:59.884Z,52.97
2018-01-22T15:58:26.726Z,50.97
2018-01-22T16:00:53.970Z,47.57
2018-01-22T16:03:21.682Z,51.80
2018-01-22T16:05:48.538Z,52.60
2018-01-22T16:08:15.416Z,43.93
2018-01-22T16:10:43.515Z,60.53
2018-01-22T16:13:12.024Z,50.97
2018-01-22T16:15:38.591Z,55.13
2018-01-22T16:18:07.050Z,46.63
2018-01-22T16:20:33.706Z,53.27
2018-01-22T16:23:02.117Z,57.70
2018-01-22T16:25:29.142Z,54.40
2018-01-22T16:27:57.345Z,52.93
2018-01-22T16:30:25.397Z,53.27
2018-01-22T16:32:52.077Z,55.63
2018-01-22T16:35:21.027Z,51.77
2018-01-22T16:37:49.649Z,62.10
2018-01-22T16:40:18.059Z,56.13
2018-01-22T16:42:44.567Z,54.80
2018-01-22T16:45:12.450Z,60.30
2018-01-22T16:47:46.594Z,51.53
2018-01-22T16:50:15.664Z,53.10
2018-01-22T16:52:42.731Z,52.73
2018-01-22T16:55:10.877Z,59.87
2018-01-22T16:57:39.012Z,63.63
2018-01-22T17:00:07.670Z,63.20
2018-01-22T17:02:36.082Z,46.60
2018-01-22T17:05:03.715Z,60.57
2018-01-22T17:07:31.558Z,51.83
2018-01-22T17:09:58.838Z,54.43
2018-01-22T17:12:27.181Z,54.47
2018-01-22T17:14:55.455Z,49.07
2018-01-22T17:17:23.461Z,46.00
2018-01-22T17:19:51.229Z,46.83
2018-01-22T17:22:19.894Z,53.90
2018-01-22T17:24:46.542Z,56.97
2018-01-22T17:27:14.197Z,52.87
2018-01-22T17:29:41.377Z,50.47
2018-01-22T17:32:08.563Z,44.43
2018-01-22T17:34:35.706Z,53.63
2018-01-22T17:37:02.170Z,47.60
2018-01-22T17:39:30.362Z,54.33
2018-01-22T17:41:56.862Z,59.10
2018-01-22T17:44:25.199Z,57.47
2018-01-22T17:46:51.743Z,52.50
2018-01-22T17:49:19.853Z,62.60
2018-01-22T17:51:48.460Z,51.77
2018-01-22T17:54:15.714Z,49.80
2018-01-22T17:56:43.246Z,55.73
2018-01-22T17:59:10.401Z,52.57
2018-01-22T18:01:36.833Z,59.10
2018-01-22T18:04:04.085Z,56.00
2018-01-22T18:06:30.930Z,57.73
2018-01-22T18:08:58.223Z,50.33
2018-01-22T18:11:25.063Z,54.70
2018-01-22T18:13:52.089Z,61.07
2018-01-22T18:16:19.074Z,60.77
2018-01-22T18:18:46.351Z,63.47
2018-01-22T18:21:14.631Z,52.13
2018-01-22T18:23:41.151Z,58.33
2018-01-22T18:33:59.161Z,47.10
2018-01-22T18:51:56.077Z,56.03
2018-01-22T19:02:29.046Z,54.57
2018-01-22T19:04:58.534Z,50.07
2018-01-22T19:48:51.895Z,54.37
2018-01-22T20:12:04.096Z,49.10
2018-01-22T20:24:45.593Z,66.50
2018-01-22T20:47:35.780Z,68.50
2018-01-22T21:16:05.559Z,68.47
2018-01-22T21:18:33.239Z,74.97
2018-01-22T21:23:33.631Z,69.47
2018-01-22T21:36:17.986Z,64.33
2018-01-22T21:38:47.111Z,63.80
2018-01-22T21:43:46.510Z,61.37
2018-01-22T21:46:13.310Z,73.73
2018-01-22T21:48:40.180Z,74.50
2018-01-22T21:51:06.801Z,61.97
2018-01-22T21:53:33.448Z,74.43
2018-01-22T21:55:59.830Z,66.33
2018-01-22T21:58:26.585Z,59.83
2018-01-22T22:00:53.728Z,66.13
2018-01-22T22:03:20.867Z,68.13
2018-01-22T22:05:47.505Z,67.90
2018-01-22T22:08:14.731Z,68.07
2018-01-22T22:10:41.188Z,59.80
2018-01-22T22:13:07.802Z,58.43
2018-01-22T22:15:34.665Z,73.03
2018-01-22T22:18:02.279Z,68.20
2018-01-22T22:20:30.339Z,61.90
2018-01-22T22:22:56.793Z,66.93
2018-01-22T22:25:23.201Z,63.37
2018-01-22T22:27:50.512Z,66.20
2018-01-22T22:30:17.015Z,71.80
2018-01-22T22:32:43.426Z,63.67
2018-01-22T22:35:09.855Z,64.53
2018-01-22T22:37:37.017Z,62.80
2018-01-22T22:40:03.548Z,62.13
2018-01-22T22:42:29.997Z,64.70
2018-01-22T22:44:56.690Z,67.07
2018-01-22T22:47:23.165Z,62.60
2018-01-22T22:49:49.932Z,74.37
2018-01-22T22:52:16.273Z,52.30
2018-01-22T22:54:43.090Z,62.10
2018-01-22T22:57:09.693Z,64.87
2018-01-22T22:59:36.139Z,61.43
2018-01-22T23:02:02.777Z,58.80
2018-01-22T23:04:29.400Z,59.53
2018-01-22T23:06:55.915Z,62.43
2018-01-22T23:09:22.726Z,64.53
2018-01-22T23:11:50.004Z,59.97
2018-01-22T23:14:16.424Z,57.67
2018-01-22T23:16:43.962Z,62.20
2018-01-22T23:19:12.124Z,61.23
2018-01-22T23:21:39.264Z,52.33
2018-01-22T23:24:06.476Z,56.10
2018-01-22T23:26:32.884Z,59.40
2018-01-22T23:28:59.280Z,58.03
2018-01-22T23:31:25.788Z,67.03
2018-01-22T23:33:52.247Z,61.57
2018-01-22T23:36:18.679Z,57.97
2018-01-22T23:38:45.215Z,60.97
2018-01-22T23:41:11.716Z,55.60
2018-01-22T23:43:38.155Z,66.00
2018-01-22T23:46:04.733Z,66.70
2018-01-22T23:48:31.173Z,63.80
2018-01-22T23:50:57.592Z,59.30
2018-01-22T23:53:24.033Z,52.93
2018-01-22T23:55:51.189Z,64.50
2018-01-22T23:58:17.556Z,57.60
